sensor_id;sensor_type;location;lat;lon;timestamp;temperature;humidity
1650;DHT22;822;53.670;8.676;2023-04-01T00:00:59;9.70;99.30
1650;DHT22;822;53.670;8.676;2023-04-01T00:03:27;9.70;99.20
1650;DHT22;822;53.670;8.676;2023-04-01T00:05:55;9.60;99.20
1650;DHT22;822;53.670;8.676;2023-04-01T00:08:24;9.60;99.20
1650;DHT22;822;53.670;8.676;2023-04-01T00:10:52;9.60;99.30
1650;DHT22;822;53.670;8.676;2023-04-01T00:13:22;9.50;99.20
1650;DHT22;822;53.670;8.676;2023-04-01T00:15:51;9.50;99.30
1650;DHT22;822;53.670;8.676;2023-04-01T00:18:18;9.50;99.30
1650;DHT22;822;53.670;8.676;2023-04-01T00:20:47;9.60;99.40
1650;DHT22;822;53.670;8.676;2023-04-01T00:23:14;9.50;99.40
1650;DHT22;822;53.670;8.676;2023-04-01T00:25:44;9.50;99.40
1650;DHT22;822;53.670;8.676;2023-04-01T00:28:11;9.50;99.40
1650;DHT22;822;53.670;8.676;2023-04-01T00:30:38;9.50;99.40
1650;DHT22;822;53.670;8.676;2023-04-01T00:33:05;9.50;99.40
1650;DHT22;822;53.670;8.676;2023-04-01T00:35:32;9.60;99.40
1650;DHT22;822;53.670;8.676;2023-04-01T00:38:00;9.50;99.40
1650;DHT22;822;53.670;8.676;2023-04-01T00:40:30;9.60;99.40
1650;DHT22;822;53.670;8.676;2023-04-01T00:43:00;9.60;99.40
1650;DHT22;822;53.670;8.676;2023-04-01T00:45:31;9.60;99.40
1650;DHT22;822;53.670;8.676;2023-04-01T00:48:01;9.60;99.50
1650;DHT22;822;53.670;8.676;2023-04-01T00:50:29;9.60;99.50
1650;DHT22;822;53.670;8.676;2023-04-01T00:52:58;9.60;99.50
1650;DHT22;822;53.670;8.676;2023-04-01T00:55:28;9.60;99.50
1650;DHT22;822;53.670;8.676;2023-04-01T00:57:59;9.60;99.50
1650;DHT22;822;53.670;8.676;2023-04-01T01:00:27;9.60;99.50
1650;DHT22;822;53.670;8.676;2023-04-01T01:02:57;9.60;99.50
1650;DHT22;822;53.670;8.676;2023-04-01T01:05:37;9.60;99.50
1650;DHT22;822;53.670;8.676;2023-04-01T01:08:12;9.60;99.50
1650;DHT22;822;53.670;8.676;2023-04-01T01:10:43;9.60;99.50
1650;DHT22;822;53.670;8.676;2023-04-01T01:13:18;9.70;99.60
1650;DHT22;822;53.670;8.676;2023-04-01T01:15:51;9.70;99.60
1650;DHT22;822;53.670;8.676;2023-04-01T01:18:27;9.70;99.60
1650;DHT22;822;53.670;8.676;2023-04-01T01:21:12;9.70;99.60
1650;DHT22;822;53.670;8.676;2023-04-01T01:24:12;9.70;99.60
1650;DHT22;822;53.670;8.676;2023-04-01T01:26:49;9.70;99.60
1650;DHT22;822;53.670;8.676;2023-04-01T01:32:46;9.70;99.60
1650;DHT22;822;53.670;8.676;2023-04-01T01:35:22;9.70;99.60
1650;DHT22;822;53.670;8.676;2023-04-01T01:37:53;9.70;99.60
1650;DHT22;822;53.670;8.676;2023-04-01T01:40:22;9.70;99.60
1650;DHT22;822;53.670;8.676;2023-04-01T01:42:55;9.70;99.60
1650;DHT22;822;53.670;8.676;2023-04-01T01:45:26;9.70;99.60
1650;DHT22;822;53.670;8.676;2023-04-01T01:47:55;9.70;99.60
1650;DHT22;822;53.670;8.676;2023-04-01T01:50:26;9.80;99.70
1650;DHT22;822;53.670;8.676;2023-04-01T01:53:03;9.70;99.60
1650;DHT22;822;53.670;8.676;2023-04-01T01:55:32;9.70;99.70
1650;DHT22;822;53.670;8.676;2023-04-01T01:58:04;9.70;99.70
1650;DHT22;822;53.670;8.676;2023-04-01T02:00:33;9.70;99.70
1650;DHT22;822;53.670;8.676;2023-04-01T02:03:01;9.70;99.70
1650;DHT22;822;53.670;8.676;2023-04-01T02:05:31;9.80;99.70
1650;DHT22;822;53.670;8.676;2023-04-01T02:08:02;9.70;99.70
1650;DHT22;822;53.670;8.676;2023-04-01T02:10:36;9.80;99.70
1650;DHT22;822;53.670;8.676;2023-04-01T02:13:09;9.80;99.80
1650;DHT22;822;53.670;8.676;2023-04-01T02:15:42;9.70;99.70
1650;DHT22;822;53.670;8.676;2023-04-01T02:18:13;9.80;99.70
1650;DHT22;822;53.670;8.676;2023-04-01T02:20:44;9.80;99.80
1650;DHT22;822;53.670;8.676;2023-04-01T02:23:12;9.80;99.80
1650;DHT22;822;53.670;8.676;2023-04-01T02:25:41;9.80;99.80
1650;DHT22;822;53.670;8.676;2023-04-01T02:28:10;9.80;99.80
1650;DHT22;822;53.670;8.676;2023-04-01T02:30:42;9.70;99.70
1650;DHT22;822;53.670;8.676;2023-04-01T02:33:11;9.80;99.80
1650;DHT22;822;53.670;8.676;2023-04-01T02:35:38;9.80;99.80
1650;DHT22;822;53.670;8.676;2023-04-01T02:38:06;9.80;99.80
1650;DHT22;822;53.670;8.676;2023-04-01T02:40:56;9.70;99.80
1650;DHT22;822;53.670;8.676;2023-04-01T02:43:23;9.70;99.80
1650;DHT22;822;53.670;8.676;2023-04-01T02:45:51;9.80;99.80
1650;DHT22;822;53.670;8.676;2023-04-01T02:48:18;9.70;99.80
1650;DHT22;822;53.670;8.676;2023-04-01T02:50:46;9.70;99.80
1650;DHT22;822;53.670;8.676;2023-04-01T02:53:14;9.80;99.90
1650;DHT22;822;53.670;8.676;2023-04-01T02:55:41;9.80;99.90
1650;DHT22;822;53.670;8.676;2023-04-01T02:58:09;9.80;99.90
1650;DHT22;822;53.670;8.676;2023-04-01T03:00:36;9.80;99.90
1650;DHT22;822;53.670;8.676;2023-04-01T03:03:03;9.70;99.90
1650;DHT22;822;53.670;8.676;2023-04-01T03:05:30;9.80;99.90
1650;DHT22;822;53.670;8.676;2023-04-01T03:07:58;9.80;99.90
1650;DHT22;822;53.670;8.676;2023-04-01T03:10:26;9.80;99.90
1650;DHT22;822;53.670;8.676;2023-04-01T03:12:54;9.80;99.90
1650;DHT22;822;53.670;8.676;2023-04-01T03:15:21;9.80;99.90
1650;DHT22;822;53.670;8.676;2023-04-01T03:17:48;9.80;99.90
1650;DHT22;822;53.670;8.676;2023-04-01T03:20:15;9.80;99.90
1650;DHT22;822;53.670;8.676;2023-04-01T03:22:42;9.80;99.90
1650;DHT22;822;53.670;8.676;2023-04-01T03:25:10;9.80;99.90
1650;DHT22;822;53.670;8.676;2023-04-01T03:27:39;9.80;99.90
1650;DHT22;822;53.670;8.676;2023-04-01T03:30:07;9.80;99.90
1650;DHT22;822;53.670;8.676;2023-04-01T03:32:35;9.80;99.90
1650;DHT22;822;53.670;8.676;2023-04-01T03:35:02;9.80;99.90
1650;DHT22;822;53.670;8.676;2023-04-01T03:37:30;9.80;99.90
1650;DHT22;822;53.670;8.676;2023-04-01T03:39:57;9.80;99.90
1650;DHT22;822;53.670;8.676;2023-04-01T03:42:24;9.80;99.90
1650;DHT22;822;53.670;8.676;2023-04-01T03:44:53;9.80;99.90
1650;DHT22;822;53.670;8.676;2023-04-01T03:47:20;9.80;99.90
1650;DHT22;822;53.670;8.676;2023-04-01T03:49:47;9.80;99.90
1650;DHT22;822;53.670;8.676;2023-04-01T03:52:14;9.80;99.90
1650;DHT22;822;53.670;8.676;2023-04-01T03:54:41;9.80;99.90
1650;DHT22;822;53.670;8.676;2023-04-01T03:57:09;9.80;99.90
1650;DHT22;822;53.670;8.676;2023-04-01T03:59:37;9.80;99.90
1650;DHT22;822;53.670;8.676;2023-04-01T04:02:06;9.80;99.90
1650;DHT22;822;53.670;8.676;2023-04-01T04:04:33;9.80;99.90
1650;DHT22;822;53.670;8.676;2023-04-01T04:07:01;9.80;99.90
1650;DHT22;822;53.670;8.676;2023-04-01T04:09:30;9.80;99.90
1650;DHT22;822;53.670;8.676;2023-04-01T04:11:57;9.80;99.90
1650;DHT22;822;53.670;8.676;2023-04-01T04:14:24;9.80;99.90
1650;DHT22;822;53.670;8.676;2023-04-01T04:16:52;9.80;99.90
1650;DHT22;822;53.670;8.676;2023-04-01T04:19:20;9.80;99.90
1650;DHT22;822;53.670;8.676;2023-04-01T04:21:47;9.80;99.90
1650;DHT22;822;53.670;8.676;2023-04-01T04:24:14;9.80;99.90
1650;DHT22;822;53.670;8.676;2023-04-01T04:26:41;9.80;99.90
1650;DHT22;822;53.670;8.676;2023-04-01T04:29:09;9.80;99.90
1650;DHT22;822;53.670;8.676;2023-04-01T04:31:36;9.80;99.90
1650;DHT22;822;53.670;8.676;2023-04-01T04:34:03;9.80;99.90
1650;DHT22;822;53.670;8.676;2023-04-01T04:36:31;9.80;99.90
1650;DHT22;822;53.670;8.676;2023-04-01T04:38:59;9.70;99.90
1650;DHT22;822;53.670;8.676;2023-04-01T04:41:28;9.80;99.90
1650;DHT22;822;53.670;8.676;2023-04-01T04:43:56;9.70;99.90
1650;DHT22;822;53.670;8.676;2023-04-01T04:46:24;9.70;99.90
1650;DHT22;822;53.670;8.676;2023-04-01T04:48:51;9.80;99.90
1650;DHT22;822;53.670;8.676;2023-04-01T04:51:20;9.80;99.90
1650;DHT22;822;53.670;8.676;2023-04-01T04:53:49;9.80;99.90
1650;DHT22;822;53.670;8.676;2023-04-01T04:56:17;9.80;99.90
1650;DHT22;822;53.670;8.676;2023-04-01T04:58:45;9.80;99.90
1650;DHT22;822;53.670;8.676;2023-04-01T05:01:14;9.80;99.90
1650;DHT22;822;53.670;8.676;2023-04-01T05:03:41;9.80;99.90
1650;DHT22;822;53.670;8.676;2023-04-01T05:06:10;9.80;99.90
1650;DHT22;822;53.670;8.676;2023-04-01T05:08:39;9.80;99.90
1650;DHT22;822;53.670;8.676;2023-04-01T05:11:09;9.80;99.90
1650;DHT22;822;53.670;8.676;2023-04-01T05:13:38;9.80;99.90
1650;DHT22;822;53.670;8.676;2023-04-01T05:16:08;9.80;99.90
1650;DHT22;822;53.670;8.676;2023-04-01T05:18:36;9.90;99.90
1650;DHT22;822;53.670;8.676;2023-04-01T05:21:03;9.90;99.90
1650;DHT22;822;53.670;8.676;2023-04-01T05:23:31;9.90;99.90
1650;DHT22;822;53.670;8.676;2023-04-01T05:25:59;9.90;99.90
1650;DHT22;822;53.670;8.676;2023-04-01T05:28:30;9.90;99.90
1650;DHT22;822;53.670;8.676;2023-04-01T05:30:58;9.90;99.90
1650;DHT22;822;53.670;8.676;2023-04-01T05:33:26;10.00;99.90
1650;DHT22;822;53.670;8.676;2023-04-01T05:35:54;9.90;99.50
1650;DHT22;822;53.670;8.676;2023-04-01T05:38:21;9.80;98.80
1650;DHT22;822;53.670;8.676;2023-04-01T05:40:48;9.50;98.00
1650;DHT22;822;53.670;8.676;2023-04-01T05:43:15;9.40;98.10
1650;DHT22;822;53.670;8.676;2023-04-01T05:45:44;9.20;97.90
1650;DHT22;822;53.670;8.676;2023-04-01T05:48:11;9.00;98.10
1650;DHT22;822;53.670;8.676;2023-04-01T05:50:40;8.90;98.10
1650;DHT22;822;53.670;8.676;2023-04-01T05:53:08;8.80;98.00
1650;DHT22;822;53.670;8.676;2023-04-01T05:55:35;8.70;98.00
1650;DHT22;822;53.670;8.676;2023-04-01T05:58:02;8.70;98.20
1650;DHT22;822;53.670;8.676;2023-04-01T06:00:29;8.70;98.20
1650;DHT22;822;53.670;8.676;2023-04-01T06:02:59;8.60;98.40
1650;DHT22;822;53.670;8.676;2023-04-01T06:05:28;8.60;98.50
1650;DHT22;822;53.670;8.676;2023-04-01T06:07:59;8.60;98.50
1650;DHT22;822;53.670;8.676;2023-04-01T06:10:38;8.50;98.40
1650;DHT22;822;53.670;8.676;2023-04-01T06:13:11;8.50;98.50
1650;DHT22;822;53.670;8.676;2023-04-01T06:15:42;8.40;98.60
1650;DHT22;822;53.670;8.676;2023-04-01T06:18:41;8.40;98.60
1650;DHT22;822;53.670;8.676;2023-04-01T06:21:32;8.30;98.50
1650;DHT22;822;53.670;8.676;2023-04-01T06:26:57;8.30;98.70
1650;DHT22;822;53.670;8.676;2023-04-01T06:29:46;8.30;98.60
1650;DHT22;822;53.670;8.676;2023-04-01T06:32:44;8.20;98.60
1650;DHT22;822;53.670;8.676;2023-04-01T06:35:35;8.20;98.70
1650;DHT22;822;53.670;8.676;2023-04-01T06:38:25;8.10;98.50
1650;DHT22;822;53.670;8.676;2023-04-01T06:44:04;8.00;98.60
1650;DHT22;822;53.670;8.676;2023-04-01T06:46:40;8.00;98.70
1650;DHT22;822;53.670;8.676;2023-04-01T06:49:25;8.00;98.80
1650;DHT22;822;53.670;8.676;2023-04-01T06:52:01;8.00;98.60
1650;DHT22;822;53.670;8.676;2023-04-01T06:54:33;8.00;98.70
1650;DHT22;822;53.670;8.676;2023-04-01T06:57:10;8.00;98.60
1650;DHT22;822;53.670;8.676;2023-04-01T06:59:42;7.90;98.60
1650;DHT22;822;53.670;8.676;2023-04-01T07:02:21;7.80;98.60
1650;DHT22;822;53.670;8.676;2023-04-01T07:04:53;7.80;98.60
1650;DHT22;822;53.670;8.676;2023-04-01T07:07:29;7.80;98.70
1650;DHT22;822;53.670;8.676;2023-04-01T07:09:59;7.80;98.60
1650;DHT22;822;53.670;8.676;2023-04-01T07:12:36;7.80;98.70
1650;DHT22;822;53.670;8.676;2023-04-01T07:15:14;7.80;98.70
1650;DHT22;822;53.670;8.676;2023-04-01T07:17:44;7.70;98.70
1650;DHT22;822;53.670;8.676;2023-04-01T07:20:20;7.70;98.60
1650;DHT22;822;53.670;8.676;2023-04-01T07:22:56;7.70;98.60
1650;DHT22;822;53.670;8.676;2023-04-01T07:25:27;7.70;98.60
1650;DHT22;822;53.670;8.676;2023-04-01T07:27:59;7.70;98.60
1650;DHT22;822;53.670;8.676;2023-04-01T07:30:39;7.70;98.50
1650;DHT22;822;53.670;8.676;2023-04-01T07:33:14;7.70;98.20
1650;DHT22;822;53.670;8.676;2023-04-01T07:35:52;7.70;98.30
1650;DHT22;822;53.670;8.676;2023-04-01T07:38:26;7.60;98.40
1650;DHT22;822;53.670;8.676;2023-04-01T07:41:05;7.60;98.30
1650;DHT22;822;53.670;8.676;2023-04-01T07:43:54;7.60;98.40
1650;DHT22;822;53.670;8.676;2023-04-01T07:46:44;7.60;98.50
1650;DHT22;822;53.670;8.676;2023-04-01T07:49:17;7.50;98.50
1650;DHT22;822;53.670;8.676;2023-04-01T07:51:53;7.60;98.40
1650;DHT22;822;53.670;8.676;2023-04-01T07:54:32;7.60;98.30
1650;DHT22;822;53.670;8.676;2023-04-01T07:57:05;7.60;98.30
1650;DHT22;822;53.670;8.676;2023-04-01T07:59:42;7.50;98.30
1650;DHT22;822;53.670;8.676;2023-04-01T08:02:21;7.50;98.30
1650;DHT22;822;53.670;8.676;2023-04-01T08:05:00;7.50;98.30
1650;DHT22;822;53.670;8.676;2023-04-01T08:07:39;7.50;98.30
1650;DHT22;822;53.670;8.676;2023-04-01T08:10:18;7.50;98.30
1650;DHT22;822;53.670;8.676;2023-04-01T08:12:56;7.50;98.20
1650;DHT22;822;53.670;8.676;2023-04-01T08:15:27;7.40;98.10
1650;DHT22;822;53.670;8.676;2023-04-01T08:18:05;7.40;98.20
1650;DHT22;822;53.670;8.676;2023-04-01T08:20:38;7.40;98.20
1650;DHT22;822;53.670;8.676;2023-04-01T08:23:13;7.40;98.20
1650;DHT22;822;53.670;8.676;2023-04-01T08:25:46;7.40;98.10
1650;DHT22;822;53.670;8.676;2023-04-01T08:28:19;7.40;98.20
1650;DHT22;822;53.670;8.676;2023-04-01T08:30:49;7.40;98.30
1650;DHT22;822;53.670;8.676;2023-04-01T08:33:23;7.30;98.20
1650;DHT22;822;53.670;8.676;2023-04-01T08:35:54;7.30;98.20
1650;DHT22;822;53.670;8.676;2023-04-01T08:38:28;7.30;98.30
1650;DHT22;822;53.670;8.676;2023-04-01T08:41:13;7.30;98.40
1650;DHT22;822;53.670;8.676;2023-04-01T08:44:04;7.30;98.30
1650;DHT22;822;53.670;8.676;2023-04-01T08:50:01;7.30;98.20
1650;DHT22;822;53.670;8.676;2023-04-01T08:52:36;7.20;98.20
1650;DHT22;822;53.670;8.676;2023-04-01T08:55:31;7.20;98.20
1650;DHT22;822;53.670;8.676;2023-04-01T09:01:26;7.20;98.10
1650;DHT22;822;53.670;8.676;2023-04-01T09:04:39;7.20;98.10
1650;DHT22;822;53.670;8.676;2023-04-01T09:07:24;7.20;98.00
1650;DHT22;822;53.670;8.676;2023-04-01T09:13:47;7.20;98.10
1650;DHT22;822;53.670;8.676;2023-04-01T09:16:30;7.20;98.10
1650;DHT22;822;53.670;8.676;2023-04-01T09:19:24;7.20;97.80
1650;DHT22;822;53.670;8.676;2023-04-01T09:22:17;7.20;97.90
1650;DHT22;822;53.670;8.676;2023-04-01T09:25:15;7.20;98.10
1650;DHT22;822;53.670;8.676;2023-04-01T09:27:56;7.20;98.20
1650;DHT22;822;53.670;8.676;2023-04-01T09:30:41;7.20;98.10
1650;DHT22;822;53.670;8.676;2023-04-01T09:36:38;7.30;98.10
1650;DHT22;822;53.670;8.676;2023-04-01T09:39:24;7.30;98.20
1650;DHT22;822;53.670;8.676;2023-04-01T09:42:06;7.30;98.20
1650;DHT22;822;53.670;8.676;2023-04-01T09:44:36;7.30;97.90
1650;DHT22;822;53.670;8.676;2023-04-01T09:47:16;7.30;97.80
1650;DHT22;822;53.670;8.676;2023-04-01T09:50:04;7.30;97.80
1650;DHT22;822;53.670;8.676;2023-04-01T09:52:44;7.30;98.00
1650;DHT22;822;53.670;8.676;2023-04-01T09:55:31;7.30;98.10
1650;DHT22;822;53.670;8.676;2023-04-01T09:58:28;7.30;97.60
1650;DHT22;822;53.670;8.676;2023-04-01T10:04:44;7.30;97.50
1650;DHT22;822;53.670;8.676;2023-04-01T10:10:39;7.40;97.30
1650;DHT22;822;53.670;8.676;2023-04-01T10:13:34;7.50;97.20
1650;DHT22;822;53.670;8.676;2023-04-01T10:16:25;7.50;97.10
1650;DHT22;822;53.670;8.676;2023-04-01T10:22:20;7.50;97.10
1650;DHT22;822;53.670;8.676;2023-04-01T10:25:28;7.60;97.00
1650;DHT22;822;53.670;8.676;2023-04-01T10:34:52;7.50;96.30
1650;DHT22;822;53.670;8.676;2023-04-01T10:37:42;7.50;96.50
1650;DHT22;822;53.670;8.676;2023-04-01T10:40:38;7.50;96.70
1650;DHT22;822;53.670;8.676;2023-04-01T10:43:38;7.50;96.40
1650;DHT22;822;53.670;8.676;2023-04-01T10:46:49;7.60;96.60
1650;DHT22;822;53.670;8.676;2023-04-01T10:49:46;7.60;96.20
1650;DHT22;822;53.670;8.676;2023-04-01T10:52:53;7.60;96.40
1650;DHT22;822;53.670;8.676;2023-04-01T10:55:48;7.60;96.30
1650;DHT22;822;53.670;8.676;2023-04-01T10:58:47;7.60;96.30
1650;DHT22;822;53.670;8.676;2023-04-01T11:04:48;7.70;96.40
1650;DHT22;822;53.670;8.676;2023-04-01T11:07:57;7.70;96.30
1650;DHT22;822;53.670;8.676;2023-04-01T11:14:09;7.60;96.10
1650;DHT22;822;53.670;8.676;2023-04-01T11:17:20;7.70;96.10
1650;DHT22;822;53.670;8.676;2023-04-01T11:20:27;7.70;96.00
1650;DHT22;822;53.670;8.676;2023-04-01T11:23:14;7.60;95.70
1650;DHT22;822;53.670;8.676;2023-04-01T11:25:52;7.60;95.50
1650;DHT22;822;53.670;8.676;2023-04-01T11:29:00;7.60;95.40
1650;DHT22;822;53.670;8.676;2023-04-01T11:31:37;7.60;95.60
1650;DHT22;822;53.670;8.676;2023-04-01T11:34:17;7.60;95.90
1650;DHT22;822;53.670;8.676;2023-04-01T11:36:55;7.70;95.90
1650;DHT22;822;53.670;8.676;2023-04-01T11:39:31;7.70;95.70
1650;DHT22;822;53.670;8.676;2023-04-01T11:42:09;7.60;95.70
1650;DHT22;822;53.670;8.676;2023-04-01T11:44:46;7.60;95.70
1650;DHT22;822;53.670;8.676;2023-04-01T11:47:27;7.60;95.60
1650;DHT22;822;53.670;8.676;2023-04-01T11:50:11;7.50;95.50
1650;DHT22;822;53.670;8.676;2023-04-01T11:55:56;7.50;95.50
1650;DHT22;822;53.670;8.676;2023-04-01T11:58:48;7.50;95.40
1650;DHT22;822;53.670;8.676;2023-04-01T12:01:28;7.50;95.20
1650;DHT22;822;53.670;8.676;2023-04-01T12:04:19;7.50;95.30
1650;DHT22;822;53.670;8.676;2023-04-01T12:07:00;7.50;95.50
1650;DHT22;822;53.670;8.676;2023-04-01T12:09:37;7.50;95.50
1650;DHT22;822;53.670;8.676;2023-04-01T12:12:20;7.50;95.80
1650;DHT22;822;53.670;8.676;2023-04-01T12:15:00;7.50;95.60
1650;DHT22;822;53.670;8.676;2023-04-01T12:17:36;7.50;95.40
1650;DHT22;822;53.670;8.676;2023-04-01T12:20:34;7.50;95.50
1650;DHT22;822;53.670;8.676;2023-04-01T12:23:16;7.50;95.10
1650;DHT22;822;53.670;8.676;2023-04-01T12:26:09;7.40;95.10
1650;DHT22;822;53.670;8.676;2023-04-01T12:28:48;7.40;95.30
1650;DHT22;822;53.670;8.676;2023-04-01T12:31:29;7.40;95.50
1650;DHT22;822;53.670;8.676;2023-04-01T12:37:12;7.30;95.60
1650;DHT22;822;53.670;8.676;2023-04-01T12:39:56;7.30;95.40
1650;DHT22;822;53.670;8.676;2023-04-01T12:42:44;7.30;95.20
1650;DHT22;822;53.670;8.676;2023-04-01T12:45:29;7.20;95.00
1650;DHT22;822;53.670;8.676;2023-04-01T12:48:23;7.20;95.10
1650;DHT22;822;53.670;8.676;2023-04-01T12:51:34;7.10;95.20
1650;DHT22;822;53.670;8.676;2023-04-01T12:54:25;7.20;95.30
1650;DHT22;822;53.670;8.676;2023-04-01T12:57:09;7.10;95.40
1650;DHT22;822;53.670;8.676;2023-04-01T13:00:03;7.10;95.10
1650;DHT22;822;53.670;8.676;2023-04-01T13:02:52;7.00;95.10
1650;DHT22;822;53.670;8.676;2023-04-01T13:05:45;7.00;94.60
1650;DHT22;822;53.670;8.676;2023-04-01T13:08:28;7.00;94.80
1650;DHT22;822;53.670;8.676;2023-04-01T13:11:08;7.00;95.00
1650;DHT22;822;53.670;8.676;2023-04-01T13:17:02;6.90;95.10
1650;DHT22;822;53.670;8.676;2023-04-01T13:19:38;6.90;94.80
1650;DHT22;822;53.670;8.676;2023-04-01T13:22:10;6.90;94.80
1650;DHT22;822;53.670;8.676;2023-04-01T13:24:46;6.90;94.70
1650;DHT22;822;53.670;8.676;2023-04-01T13:27:18;6.80;94.70
1650;DHT22;822;53.670;8.676;2023-04-01T13:29:59;6.80;94.50
1650;DHT22;822;53.670;8.676;2023-04-01T13:32:35;6.70;94.60
1650;DHT22;822;53.670;8.676;2023-04-01T13:35:17;6.70;94.60
1650;DHT22;822;53.670;8.676;2023-04-01T13:38:11;6.70;94.50
1650;DHT22;822;53.670;8.676;2023-04-01T13:40:48;6.70;94.60
1650;DHT22;822;53.670;8.676;2023-04-01T13:43:22;6.70;94.50
1650;DHT22;822;53.670;8.676;2023-04-01T13:46:06;6.70;94.60
1650;DHT22;822;53.670;8.676;2023-04-01T13:49:04;6.70;94.60
1650;DHT22;822;53.670;8.676;2023-04-01T13:51:58;6.70;94.70
1650;DHT22;822;53.670;8.676;2023-04-01T13:57:48;6.70;94.30
1650;DHT22;822;53.670;8.676;2023-04-01T14:00:31;6.60;94.30
1650;DHT22;822;53.670;8.676;2023-04-01T14:06:09;6.50;94.20
1650;DHT22;822;53.670;8.676;2023-04-01T14:09:03;6.50;94.40
1650;DHT22;822;53.670;8.676;2023-04-01T14:11:39;6.50;94.00
1650;DHT22;822;53.670;8.676;2023-04-01T14:14:19;6.50;94.10
1650;DHT22;822;53.670;8.676;2023-04-01T14:17:17;6.50;93.90
1650;DHT22;822;53.670;8.676;2023-04-01T14:20:07;6.50;93.90
1650;DHT22;822;53.670;8.676;2023-04-01T14:22:50;6.50;93.90
1650;DHT22;822;53.670;8.676;2023-04-01T14:25:43;6.50;94.00
1650;DHT22;822;53.670;8.676;2023-04-01T14:28:21;6.50;94.00
1650;DHT22;822;53.670;8.676;2023-04-01T14:31:11;6.50;93.80
1650;DHT22;822;53.670;8.676;2023-04-01T14:33:46;6.50;94.00
1650;DHT22;822;53.670;8.676;2023-04-01T14:36:43;6.50;93.90
1650;DHT22;822;53.670;8.676;2023-04-01T14:39:38;6.50;93.60
1650;DHT22;822;53.670;8.676;2023-04-01T14:42:39;6.50;93.60
1650;DHT22;822;53.670;8.676;2023-04-01T14:45:45;6.50;93.70
1650;DHT22;822;53.670;8.676;2023-04-01T14:48:23;6.50;93.80
1650;DHT22;822;53.670;8.676;2023-04-01T14:50:54;6.50;93.40
1650;DHT22;822;53.670;8.676;2023-04-01T14:53:28;6.40;93.50
1650;DHT22;822;53.670;8.676;2023-04-01T14:55:58;6.40;93.40
1650;DHT22;822;53.670;8.676;2023-04-01T14:58:40;6.40;93.30
1650;DHT22;822;53.670;8.676;2023-04-01T15:04:02;6.40;93.60
1650;DHT22;822;53.670;8.676;2023-04-01T15:06:52;6.40;93.70
1650;DHT22;822;53.670;8.676;2023-04-01T15:09:26;6.40;93.60
1650;DHT22;822;53.670;8.676;2023-04-01T15:12:10;6.40;93.90
1650;DHT22;822;53.670;8.676;2023-04-01T15:17:53;6.30;93.80
1650;DHT22;822;53.670;8.676;2023-04-01T15:20:46;6.40;93.70
1650;DHT22;822;53.670;8.676;2023-04-01T15:23:25;6.30;93.50
1650;DHT22;822;53.670;8.676;2023-04-01T15:29:11;6.30;93.80
1650;DHT22;822;53.670;8.676;2023-04-01T15:31:48;6.30;93.40
1650;DHT22;822;53.670;8.676;2023-04-01T15:34:29;6.30;93.30
1650;DHT22;822;53.670;8.676;2023-04-01T15:37:02;6.30;93.30
1650;DHT22;822;53.670;8.676;2023-04-01T15:39:42;6.30;93.50
1650;DHT22;822;53.670;8.676;2023-04-01T15:45:18;6.30;93.50
1650;DHT22;822;53.670;8.676;2023-04-01T15:47:59;6.20;93.60
1650;DHT22;822;53.670;8.676;2023-04-01T15:50:48;6.20;93.60
1650;DHT22;822;53.670;8.676;2023-04-01T15:53:54;6.20;93.30
1650;DHT22;822;53.670;8.676;2023-04-01T15:56:30;6.20;93.50
1650;DHT22;822;53.670;8.676;2023-04-01T15:59:14;6.20;93.70
1650;DHT22;822;53.670;8.676;2023-04-01T16:01:53;6.10;93.50
1650;DHT22;822;53.670;8.676;2023-04-01T16:04:45;6.10;93.60
1650;DHT22;822;53.670;8.676;2023-04-01T16:07:24;6.10;93.50
1650;DHT22;822;53.670;8.676;2023-04-01T16:10:17;6.10;93.50
1650;DHT22;822;53.670;8.676;2023-04-01T16:13:00;6.00;93.40
1650;DHT22;822;53.670;8.676;2023-04-01T16:15:39;6.00;93.50
1650;DHT22;822;53.670;8.676;2023-04-01T16:18:33;5.90;93.50
1650;DHT22;822;53.670;8.676;2023-04-01T16:21:10;5.90;93.40
1650;DHT22;822;53.670;8.676;2023-04-01T16:23:42;5.80;93.40
1650;DHT22;822;53.670;8.676;2023-04-01T16:26:22;5.80;93.40
1650;DHT22;822;53.670;8.676;2023-04-01T16:28:55;5.80;93.60
1650;DHT22;822;53.670;8.676;2023-04-01T16:31:32;5.80;93.60
1650;DHT22;822;53.670;8.676;2023-04-01T16:34:04;5.80;93.40
1650;DHT22;822;53.670;8.676;2023-04-01T16:36:41;5.80;93.30
1650;DHT22;822;53.670;8.676;2023-04-01T16:39:25;5.70;93.20
1650;DHT22;822;53.670;8.676;2023-04-01T16:42:16;5.70;93.30
1650;DHT22;822;53.670;8.676;2023-04-01T16:44:52;5.70;93.40
1650;DHT22;822;53.670;8.676;2023-04-01T16:47:22;5.70;93.60
1650;DHT22;822;53.670;8.676;2023-04-01T16:49:59;5.60;93.40
1650;DHT22;822;53.670;8.676;2023-04-01T16:52:42;5.60;93.40
1650;DHT22;822;53.670;8.676;2023-04-01T16:55:17;5.60;93.30
1650;DHT22;822;53.670;8.676;2023-04-01T16:57:49;5.60;93.10
1650;DHT22;822;53.670;8.676;2023-04-01T17:00:23;5.60;93.10
1650;DHT22;822;53.670;8.676;2023-04-01T17:03:02;5.60;93.20
1650;DHT22;822;53.670;8.676;2023-04-01T17:05:41;5.60;93.10
1650;DHT22;822;53.670;8.676;2023-04-01T17:08:17;5.50;93.20
1650;DHT22;822;53.670;8.676;2023-04-01T17:10:53;5.50;93.10
1650;DHT22;822;53.670;8.676;2023-04-01T17:13:33;5.50;92.90
1650;DHT22;822;53.670;8.676;2023-04-01T17:16:17;5.40;92.80
1650;DHT22;822;53.670;8.676;2023-04-01T17:18:49;5.40;92.90
1650;DHT22;822;53.670;8.676;2023-04-01T17:21:22;5.40;93.00
1650;DHT22;822;53.670;8.676;2023-04-01T17:23:58;5.40;93.10
1650;DHT22;822;53.670;8.676;2023-04-01T17:26:33;5.40;93.00
1650;DHT22;822;53.670;8.676;2023-04-01T17:29:09;5.40;93.00
1650;DHT22;822;53.670;8.676;2023-04-01T17:31:53;5.40;92.80
1650;DHT22;822;53.670;8.676;2023-04-01T17:34:43;5.30;92.70
1650;DHT22;822;53.670;8.676;2023-04-01T17:37:26;5.40;92.50
1650;DHT22;822;53.670;8.676;2023-04-01T17:40:17;5.30;92.30
1650;DHT22;822;53.670;8.676;2023-04-01T17:42:54;5.30;92.40
1650;DHT22;822;53.670;8.676;2023-04-01T17:45:30;5.30;92.50
1650;DHT22;822;53.670;8.676;2023-04-01T17:48:06;5.30;92.30
1650;DHT22;822;53.670;8.676;2023-04-01T17:51:02;5.20;92.30
1650;DHT22;822;53.670;8.676;2023-04-01T17:53:39;5.20;92.40
1650;DHT22;822;53.670;8.676;2023-04-01T17:59:11;5.20;92.60
1650;DHT22;822;53.670;8.676;2023-04-01T18:01:57;5.20;92.70
1650;DHT22;822;53.670;8.676;2023-04-01T18:04:59;5.20;92.70
1650;DHT22;822;53.670;8.676;2023-04-01T18:07:49;5.20;92.50
1650;DHT22;822;53.670;8.676;2023-04-01T18:10:27;5.20;92.50
1650;DHT22;822;53.670;8.676;2023-04-01T18:13:29;5.20;92.40
1650;DHT22;822;53.670;8.676;2023-04-01T18:16:11;5.20;92.40
1650;DHT22;822;53.670;8.676;2023-04-01T18:18:50;5.20;92.10
1650;DHT22;822;53.670;8.676;2023-04-01T18:21:29;5.20;91.90
1650;DHT22;822;53.670;8.676;2023-04-01T18:24:06;5.20;92.00
1650;DHT22;822;53.670;8.676;2023-04-01T18:26:39;5.20;92.10
1650;DHT22;822;53.670;8.676;2023-04-01T18:29:18;5.20;92.20
1650;DHT22;822;53.670;8.676;2023-04-01T18:31:55;5.10;92.20
1650;DHT22;822;53.670;8.676;2023-04-01T18:34:40;5.10;92.20
1650;DHT22;822;53.670;8.676;2023-04-01T18:37:16;5.10;92.10
1650;DHT22;822;53.670;8.676;2023-04-01T18:39:48;5.10;91.70
1650;DHT22;822;53.670;8.676;2023-04-01T18:42:27;5.00;91.60
1650;DHT22;822;53.670;8.676;2023-04-01T18:45:02;5.00;91.40
1650;DHT22;822;53.670;8.676;2023-04-01T18:47:41;5.00;91.00
1650;DHT22;822;53.670;8.676;2023-04-01T18:50:18;4.90;91.20
1650;DHT22;822;53.670;8.676;2023-04-01T18:52:49;4.90;91.00
1650;DHT22;822;53.670;8.676;2023-04-01T18:55:31;4.90;91.20
1650;DHT22;822;53.670;8.676;2023-04-01T18:58:14;4.80;91.30
1650;DHT22;822;53.670;8.676;2023-04-01T19:00:49;4.90;91.20